ADDS METAR Data INFO
IDs: Format: Raw Decoded Include TAF

Data at: 1741 UTC 21 Apr 2018

FNLU 211600Z 26006KT 9999 FEW020 FEW023CB 30/23 Q1008

TAF FNLU 211700Z 2118/2224 26006KT 9999 FEW020 FEW023CB
  BECMG 2201/2203 VRB03KT 8000 FEW018 BKN050
  PROB40
  TEMPO 2203/2210 5000 RADZ SCT018
  BECMG 2211/2214 29010KT 9999 FEW020


FNCA 211700Z 20006KT 9999 FEW020 SCT080 29/25 Q1009

TAF COR FNCA 211500Z 2112/2124 25008KT 9999 SCT018
  TEMPO 2114/2118 3000 RA SCT015 BKN030
  BECMG 2120/2123 VRB03KT 9000 BKN015


FNBG 211600Z 30008KT 9999 FEW020 31/26 Q1009

TAF FNBG 211030Z 2112/2124 31010KT 9999 FEW016
  BECMG 2117/2120 25008KT SCT018


FNHU 211600Z 09008KT 9999 FEW014 25/12 Q1022

TAF FNHU 211030Z 2112/2124 09010KT 9999 SCT016
  BECMG 2120/2123 VRB03KT 9000 NSC


FNUE 211400Z 14008KT 9999 SCT040 29/18 Q1017

TAF FNUE 211030Z 2112/2124 13010KT 9999 SCT030
  BECMG 2120/2123 VRB03KT 9000 NSC


FNGI 211500Z 06006KT 9999 FEW016 31/13 Q1017

TAF FNGI 211030Z 2112/2124 09008KT 9999 FEW016
  BECMG 2120/2123 VRB03KT 9000 NSC


FNUB 211700Z 13006KT 9999 SCT030 23/// Q1024

TAF FNUB 211030Z 2112/2124 13015KT 9999 FEW025
  BECMG 2121/2124 VRB03KT 9000 NSC


FNMO 211500Z 20011KT 9999 SCT012 30/24 Q1010

TAF FNMO 211030Z 2112/2124 34012KT CAVOK
  TEMPO 2115/2120 27010KT 9999 FEW018
  BECMG 2121/2124 20008KT 9999 FEW015


FNUG 211600Z 12006KT 9999 TS SCT020 FEW025 BKN080 24/22 Q1013
No TAF found for FNUG

FNMA 211600Z 09007KT 9999 BKN022 FEW025CB 25/22 Q1014

TAF FNMA 211030Z 2112/2124 25008KT 9999 SCT020
  BECMG 2120/2123 VRB03KT 9000 BKN015


FNSA 211600Z 00000KT 9999 SCT030 29/20 Q1018

TAF FNSA 211030Z 2112/2124 15010KT CAVOK
  TEMPO 2114/2118 9999 SCT030
  BECMG 2120/2123 VRB03KT 9000 FEW015


FNSO 211600Z 21005KT 9999 SCT016 FEW017CB ///// Q1009

TAF FNSO 211030Z 2112/2124 23008KT 9999 SCT020
  BECMG 2120/2123 VRB03KT 9000 BKN015


FNBC 211600Z 12005KT 9999 FEW019 25/// Q1010
No TAF found for FNBC

FNSU 211600Z 21004KT 9999 SCT016 30/// Q1011
No TAF found for FNSU

FNDU 211400Z 14011KT 9999 DZ SCT023 FEW035CB 29/// Q1012

TAF FNDU 211030Z 2112/2124 15008KT 9999 FEW025
  BECMG 2120/2123 VRB03KT 9000 NSC


No METAR found for FNME

TAF FNME 211030Z 2112/2124 10010KT 9999 FEW025
  BECMG 2120/2123 VRB03KT 9000 NSC


No METAR found for FNCT

TAF FNCT 211030Z 2112/2124 29010KT 9999 FEW015
  BECMG 2117/2120 22006KT SCT014


FNKU 211600Z 32010KT 9999 FEW015 25/20 Q1020

TAF FNKU 211030Z 2112/2124 10010KT 9999 SCT014
  BECMG 2120/2123 VRB03KT 9000 NSC